sensor_id;sensor_type;location;lat;lon;timestamp;P1;durP1;ratioP1;P2;durP2;ratioP2
54125;SDS011;40360;52.992;6.796;2023-07-28T00:00:15;32.33;;;18.83;;
54125;SDS011;40360;52.992;6.796;2023-07-28T00:02:41;35.22;;;18.42;;
54125;SDS011;40360;52.992;6.796;2023-07-28T00:05:06;37.35;;;19.38;;
54125;SDS011;40360;52.992;6.796;2023-07-28T00:07:32;39.00;;;20.48;;
54125;SDS011;40360;52.992;6.796;2023-07-28T00:10:00;34.30;;;18.20;;
54125;SDS011;40360;52.992;6.796;2023-07-28T00:12:26;34.53;;;19.05;;
54125;SDS011;40360;52.992;6.796;2023-07-28T00:14:51;35.80;;;19.77;;
54125;SDS011;40360;52.992;6.796;2023-07-28T00:17:17;37.83;;;20.42;;
54125;SDS011;40360;52.992;6.796;2023-07-28T00:19:43;41.47;;;21.48;;
54125;SDS011;40360;52.992;6.796;2023-07-28T00:22:08;33.50;;;20.90;;
54125;SDS011;40360;52.992;6.796;2023-07-28T00:24:34;33.63;;;20.45;;
54125;SDS011;40360;52.992;6.796;2023-07-28T00:26:59;32.20;;;20.95;;
54125;SDS011;40360;52.992;6.796;2023-07-28T00:29:25;34.50;;;20.52;;
54125;SDS011;40360;52.992;6.796;2023-07-28T00:31:50;34.92;;;20.60;;
54125;SDS011;40360;52.992;6.796;2023-07-28T00:34:16;36.00;;;20.73;;
54125;SDS011;40360;52.992;6.796;2023-07-28T00:36:41;33.53;;;20.33;;
54125;SDS011;40360;52.992;6.796;2023-07-28T00:39:07;33.00;;;21.27;;
54125;SDS011;40360;52.992;6.796;2023-07-28T00:41:33;31.52;;;20.90;;
54125;SDS011;40360;52.992;6.796;2023-07-28T00:43:58;30.50;;;20.27;;
54125;SDS011;40360;52.992;6.796;2023-07-28T00:46:24;33.95;;;21.98;;
54125;SDS011;40360;52.992;6.796;2023-07-28T00:48:50;32.13;;;21.88;;
54125;SDS011;40360;52.992;6.796;2023-07-28T00:51:16;33.30;;;20.50;;
54125;SDS011;40360;52.992;6.796;2023-07-28T00:53:42;33.97;;;21.98;;
54125;SDS011;40360;52.992;6.796;2023-07-28T00:56:08;33.72;;;22.10;;
54125;SDS011;40360;52.992;6.796;2023-07-28T00:58:35;34.95;;;21.58;;
54125;SDS011;40360;52.992;6.796;2023-07-28T01:01:01;31.85;;;21.50;;
54125;SDS011;40360;52.992;6.796;2023-07-28T01:03:27;34.30;;;21.88;;
54125;SDS011;40360;52.992;6.796;2023-07-28T01:06:04;35.63;;;21.98;;
54125;SDS011;40360;52.992;6.796;2023-07-28T01:08:48;35.33;;;22.73;;
54125;SDS011;40360;52.992;6.796;2023-07-28T01:11:21;35.33;;;21.55;;
54125;SDS011;40360;52.992;6.796;2023-07-28T01:13:46;34.03;;;22.52;;
54125;SDS011;40360;52.992;6.796;2023-07-28T01:16:12;39.70;;;22.45;;
54125;SDS011;40360;52.992;6.796;2023-07-28T01:18:38;34.65;;;23.10;;
54125;SDS011;40360;52.992;6.796;2023-07-28T01:21:05;36.88;;;23.02;;
54125;SDS011;40360;52.992;6.796;2023-07-28T01:26:25;36.80;;;22.38;;
54125;SDS011;40360;52.992;6.796;2023-07-28T01:28:53;31.30;;;19.27;;
54125;SDS011;40360;52.992;6.796;2023-07-28T01:31:19;37.80;;;20.80;;
54125;SDS011;40360;52.992;6.796;2023-07-28T01:33:45;35.28;;;21.52;;
54125;SDS011;40360;52.992;6.796;2023-07-28T01:36:10;35.55;;;19.92;;
54125;SDS011;40360;52.992;6.796;2023-07-28T01:38:36;30.50;;;20.33;;
54125;SDS011;40360;52.992;6.796;2023-07-28T01:41:01;35.67;;;19.75;;
54125;SDS011;40360;52.992;6.796;2023-07-28T01:43:27;34.92;;;20.55;;
54125;SDS011;40360;52.992;6.796;2023-07-28T01:45:53;28.95;;;19.63;;
54125;SDS011;40360;52.992;6.796;2023-07-28T01:48:18;34.58;;;18.98;;
54125;SDS011;40360;52.992;6.796;2023-07-28T01:50:44;30.60;;;19.42;;
54125;SDS011;40360;52.992;6.796;2023-07-28T01:53:10;27.10;;;18.23;;
54125;SDS011;40360;52.992;6.796;2023-07-28T01:55:35;27.60;;;18.30;;
54125;SDS011;40360;52.992;6.796;2023-07-28T01:58:01;27.88;;;17.63;;
54125;SDS011;40360;52.992;6.796;2023-07-28T02:00:28;36.42;;;19.70;;
54125;SDS011;40360;52.992;6.796;2023-07-28T02:02:54;29.52;;;17.85;;
54125;SDS011;40360;52.992;6.796;2023-07-28T02:05:20;33.10;;;18.33;;
54125;SDS011;40360;52.992;6.796;2023-07-28T02:07:46;28.15;;;18.00;;
54125;SDS011;40360;52.992;6.796;2023-07-28T02:10:11;25.42;;;17.17;;
54125;SDS011;40360;52.992;6.796;2023-07-28T02:12:38;30.08;;;18.48;;
54125;SDS011;40360;52.992;6.796;2023-07-28T02:15:07;32.65;;;18.98;;
54125;SDS011;40360;52.992;6.796;2023-07-28T02:17:33;31.35;;;18.60;;
54125;SDS011;40360;52.992;6.796;2023-07-28T02:19:58;33.67;;;18.20;;
54125;SDS011;40360;52.992;6.796;2023-07-28T02:22:24;30.95;;;18.50;;
54125;SDS011;40360;52.992;6.796;2023-07-28T02:24:50;30.25;;;19.70;;
54125;SDS011;40360;52.992;6.796;2023-07-28T02:27:15;31.23;;;17.60;;
54125;SDS011;40360;52.992;6.796;2023-07-28T02:29:41;31.95;;;19.58;;
54125;SDS011;40360;52.992;6.796;2023-07-28T02:32:07;33.53;;;19.38;;
54125;SDS011;40360;52.992;6.796;2023-07-28T02:34:33;25.48;;;17.48;;
54125;SDS011;40360;52.992;6.796;2023-07-28T02:36:58;29.20;;;18.02;;
54125;SDS011;40360;52.992;6.796;2023-07-28T02:39:24;28.92;;;18.15;;
54125;SDS011;40360;52.992;6.796;2023-07-28T02:41:50;39.72;;;21.00;;
54125;SDS011;40360;52.992;6.796;2023-07-28T02:44:16;33.42;;;20.30;;
54125;SDS011;40360;52.992;6.796;2023-07-28T02:46:41;42.35;;;22.15;;
54125;SDS011;40360;52.992;6.796;2023-07-28T02:49:07;36.72;;;21.35;;
54125;SDS011;40360;52.992;6.796;2023-07-28T02:51:32;41.75;;;21.23;;
54125;SDS011;40360;52.992;6.796;2023-07-28T02:53:59;39.75;;;22.25;;
54125;SDS011;40360;52.992;6.796;2023-07-28T02:56:25;41.92;;;20.40;;
54125;SDS011;40360;52.992;6.796;2023-07-28T02:58:50;41.25;;;21.33;;
54125;SDS011;40360;52.992;6.796;2023-07-28T03:01:16;30.83;;;20.40;;
54125;SDS011;40360;52.992;6.796;2023-07-28T03:03:42;40.67;;;21.15;;
54125;SDS011;40360;52.992;6.796;2023-07-28T03:06:08;36.45;;;21.50;;
54125;SDS011;40360;52.992;6.796;2023-07-28T03:08:33;40.17;;;20.25;;
54125;SDS011;40360;52.992;6.796;2023-07-28T03:10:59;32.33;;;20.73;;
54125;SDS011;40360;52.992;6.796;2023-07-28T03:13:27;36.10;;;21.58;;
54125;SDS011;40360;52.992;6.796;2023-07-28T03:15:53;41.05;;;21.65;;
54125;SDS011;40360;52.992;6.796;2023-07-28T03:18:19;32.38;;;19.23;;
54125;SDS011;40360;52.992;6.796;2023-07-28T03:20:45;39.22;;;20.13;;
54125;SDS011;40360;52.992;6.796;2023-07-28T03:23:12;30.90;;;20.17;;
54125;SDS011;40360;52.992;6.796;2023-07-28T03:25:38;34.17;;;19.38;;
54125;SDS011;40360;52.992;6.796;2023-07-28T03:28:03;34.90;;;20.95;;
54125;SDS011;40360;52.992;6.796;2023-07-28T03:30:29;28.42;;;19.35;;
54125;SDS011;40360;52.992;6.796;2023-07-28T03:32:55;34.35;;;20.38;;
54125;SDS011;40360;52.992;6.796;2023-07-28T03:35:21;32.08;;;20.30;;
54125;SDS011;40360;52.992;6.796;2023-07-28T03:37:46;32.20;;;20.33;;
54125;SDS011;40360;52.992;6.796;2023-07-28T03:40:12;35.10;;;19.50;;
54125;SDS011;40360;52.992;6.796;2023-07-28T03:42:37;33.33;;;18.98;;
54125;SDS011;40360;52.992;6.796;2023-07-28T03:45:03;34.83;;;18.65;;
54125;SDS011;40360;52.992;6.796;2023-07-28T03:47:29;33.25;;;17.73;;
54125;SDS011;40360;52.992;6.796;2023-07-28T03:49:55;33.97;;;19.17;;
54125;SDS011;40360;52.992;6.796;2023-07-28T03:52:20;34.00;;;18.48;;
54125;SDS011;40360;52.992;6.796;2023-07-28T03:54:46;35.65;;;18.67;;
54125;SDS011;40360;52.992;6.796;2023-07-28T03:57:12;30.83;;;18.35;;
54125;SDS011;40360;52.992;6.796;2023-07-28T03:59:37;24.08;;;17.92;;
54125;SDS011;40360;52.992;6.796;2023-07-28T04:02:03;34.47;;;18.83;;
54125;SDS011;40360;52.992;6.796;2023-07-28T04:04:29;29.98;;;17.27;;
54125;SDS011;40360;52.992;6.796;2023-07-28T04:06:54;34.05;;;18.98;;
54125;SDS011;40360;52.992;6.796;2023-07-28T04:09:20;31.55;;;18.60;;
54125;SDS011;40360;52.992;6.796;2023-07-28T04:11:46;27.23;;;19.48;;
54125;SDS011;40360;52.992;6.796;2023-07-28T04:14:12;34.88;;;19.98;;
54125;SDS011;40360;52.992;6.796;2023-07-28T04:16:37;28.25;;;19.38;;
54125;SDS011;40360;52.992;6.796;2023-07-28T04:19:03;34.65;;;19.90;;
54125;SDS011;40360;52.992;6.796;2023-07-28T04:21:29;34.22;;;20.60;;
54125;SDS011;40360;52.992;6.796;2023-07-28T04:23:55;28.25;;;20.17;;
54125;SDS011;40360;52.992;6.796;2023-07-28T04:26:20;38.40;;;21.25;;
54125;SDS011;40360;52.992;6.796;2023-07-28T04:28:48;26.10;;;19.30;;
54125;SDS011;40360;52.992;6.796;2023-07-28T04:31:13;40.25;;;22.63;;
54125;SDS011;40360;52.992;6.796;2023-07-28T04:33:42;31.77;;;21.35;;
54125;SDS011;40360;52.992;6.796;2023-07-28T04:36:08;29.88;;;20.30;;
54125;SDS011;40360;52.992;6.796;2023-07-28T04:38:34;32.47;;;20.08;;
54125;SDS011;40360;52.992;6.796;2023-07-28T04:41:00;34.78;;;21.70;;
54125;SDS011;40360;52.992;6.796;2023-07-28T04:43:25;30.83;;;19.98;;
54125;SDS011;40360;52.992;6.796;2023-07-28T04:45:51;31.60;;;21.20;;
54125;SDS011;40360;52.992;6.796;2023-07-28T04:48:17;36.80;;;22.25;;
54125;SDS011;40360;52.992;6.796;2023-07-28T04:50:43;38.55;;;21.52;;
54125;SDS011;40360;52.992;6.796;2023-07-28T04:53:09;31.88;;;20.42;;
54125;SDS011;40360;52.992;6.796;2023-07-28T04:55:35;39.38;;;21.58;;
54125;SDS011;40360;52.992;6.796;2023-07-28T04:58:01;32.40;;;21.70;;
54125;SDS011;40360;52.992;6.796;2023-07-28T05:00:26;28.83;;;20.48;;
54125;SDS011;40360;52.992;6.796;2023-07-28T05:02:52;32.28;;;20.00;;
54125;SDS011;40360;52.992;6.796;2023-07-28T05:05:18;26.17;;;18.95;;
54125;SDS011;40360;52.992;6.796;2023-07-28T05:07:43;32.10;;;20.35;;
54125;SDS011;40360;52.992;6.796;2023-07-28T05:10:09;34.38;;;20.45;;
54125;SDS011;40360;52.992;6.796;2023-07-28T05:12:35;29.65;;;18.40;;
54125;SDS011;40360;52.992;6.796;2023-07-28T05:15:00;28.40;;;19.15;;
54125;SDS011;40360;52.992;6.796;2023-07-28T05:17:26;30.20;;;19.50;;
54125;SDS011;40360;52.992;6.796;2023-07-28T05:19:51;30.88;;;18.80;;
54125;SDS011;40360;52.992;6.796;2023-07-28T05:22:17;32.75;;;19.17;;
54125;SDS011;40360;52.992;6.796;2023-07-28T05:24:43;32.85;;;20.35;;
54125;SDS011;40360;52.992;6.796;2023-07-28T05:27:09;33.83;;;19.00;;
54125;SDS011;40360;52.992;6.796;2023-07-28T05:29:36;32.88;;;20.38;;
54125;SDS011;40360;52.992;6.796;2023-07-28T05:32:01;30.13;;;18.60;;
54125;SDS011;40360;52.992;6.796;2023-07-28T05:34:29;31.35;;;18.08;;
54125;SDS011;40360;52.992;6.796;2023-07-28T05:36:55;24.52;;;18.17;;
54125;SDS011;40360;52.992;6.796;2023-07-28T05:39:20;25.85;;;17.95;;
54125;SDS011;40360;52.992;6.796;2023-07-28T05:41:46;25.83;;;17.08;;
54125;SDS011;40360;52.992;6.796;2023-07-28T06:02:04;24.15;;;15.60;;
54125;SDS011;40360;52.992;6.796;2023-07-28T06:04:31;24.73;;;17.40;;
54125;SDS011;40360;52.992;6.796;2023-07-28T06:06:56;25.40;;;17.08;;
54125;SDS011;40360;52.992;6.796;2023-07-28T06:09:22;23.23;;;16.35;;
54125;SDS011;40360;52.992;6.796;2023-07-28T06:11:47;26.73;;;17.35;;
54125;SDS011;40360;52.992;6.796;2023-07-28T06:14:13;22.67;;;15.63;;
54125;SDS011;40360;52.992;6.796;2023-07-28T06:16:39;23.75;;;17.45;;
54125;SDS011;40360;52.992;6.796;2023-07-28T06:19:04;19.60;;;14.10;;
54125;SDS011;40360;52.992;6.796;2023-07-28T06:21:30;21.90;;;15.05;;
54125;SDS011;40360;52.992;6.796;2023-07-28T06:23:56;21.30;;;13.02;;
54125;SDS011;40360;52.992;6.796;2023-07-28T06:26:21;23.50;;;13.93;;
54125;SDS011;40360;52.992;6.796;2023-07-28T06:28:47;19.85;;;13.13;;
54125;SDS011;40360;52.992;6.796;2023-07-28T06:31:13;18.38;;;12.60;;
54125;SDS011;40360;52.992;6.796;2023-07-28T06:33:38;18.08;;;12.13;;
54125;SDS011;40360;52.992;6.796;2023-07-28T06:36:04;18.55;;;12.18;;
54125;SDS011;40360;52.992;6.796;2023-07-28T06:38:30;17.80;;;12.02;;
54125;SDS011;40360;52.992;6.796;2023-07-28T06:40:56;16.55;;;10.48;;
54125;SDS011;40360;52.992;6.796;2023-07-28T06:43:21;16.50;;;10.65;;
54125;SDS011;40360;52.992;6.796;2023-07-28T06:45:50;15.60;;;10.30;;
54125;SDS011;40360;52.992;6.796;2023-07-28T06:48:16;15.57;;;9.82;;
54125;SDS011;40360;52.992;6.796;2023-07-28T06:50:42;17.95;;;9.73;;
54125;SDS011;40360;52.992;6.796;2023-07-28T06:53:08;14.02;;;10.68;;
54125;SDS011;40360;52.992;6.796;2023-07-28T06:55:33;14.30;;;10.15;;
54125;SDS011;40360;52.992;6.796;2023-07-28T06:57:59;13.43;;;9.00;;
54125;SDS011;40360;52.992;6.796;2023-07-28T07:00:25;15.50;;;8.95;;
54125;SDS011;40360;52.992;6.796;2023-07-28T07:02:50;13.73;;;9.25;;
54125;SDS011;40360;52.992;6.796;2023-07-28T07:05:16;20.42;;;9.30;;
54125;SDS011;40360;52.992;6.796;2023-07-28T07:07:42;10.57;;;7.97;;
54125;SDS011;40360;52.992;6.796;2023-07-28T07:10:07;25.35;;;9.57;;
54125;SDS011;40360;52.992;6.796;2023-07-28T07:12:34;12.18;;;6.90;;
54125;SDS011;40360;52.992;6.796;2023-07-28T07:15:00;10.18;;;6.82;;
54125;SDS011;40360;52.992;6.796;2023-07-28T07:17:26;12.10;;;7.38;;
54125;SDS011;40360;52.992;6.796;2023-07-28T07:19:52;14.80;;;6.90;;
54125;SDS011;40360;52.992;6.796;2023-07-28T07:22:17;13.15;;;7.68;;
54125;SDS011;40360;52.992;6.796;2023-07-28T07:24:43;14.40;;;6.68;;
54125;SDS011;40360;52.992;6.796;2023-07-28T07:27:09;16.70;;;7.53;;
54125;SDS011;40360;52.992;6.796;2023-07-28T07:29:36;8.88;;;6.35;;
54125;SDS011;40360;52.992;6.796;2023-07-28T07:32:05;10.23;;;6.40;;
54125;SDS011;40360;52.992;6.796;2023-07-28T07:34:32;11.60;;;6.43;;
54125;SDS011;40360;52.992;6.796;2023-07-28T07:36:58;11.82;;;6.75;;
54125;SDS011;40360;52.992;6.796;2023-07-28T07:39:24;9.30;;;6.20;;
54125;SDS011;40360;52.992;6.796;2023-07-28T07:41:50;9.48;;;5.53;;
54125;SDS011;40360;52.992;6.796;2023-07-28T07:44:15;9.60;;;4.75;;
54125;SDS011;40360;52.992;6.796;2023-07-28T07:46:41;9.02;;;4.80;;
54125;SDS011;40360;52.992;6.796;2023-07-28T07:49:06;8.98;;;5.15;;
54125;SDS011;40360;52.992;6.796;2023-07-28T07:51:33;11.68;;;5.57;;
54125;SDS011;40360;52.992;6.796;2023-07-28T07:53:59;7.13;;;3.70;;
54125;SDS011;40360;52.992;6.796;2023-07-28T07:56:26;8.23;;;3.95;;
54125;SDS011;40360;52.992;6.796;2023-07-28T07:58:52;9.75;;;3.97;;
54125;SDS011;40360;52.992;6.796;2023-07-28T08:01:18;7.25;;;4.22;;
54125;SDS011;40360;52.992;6.796;2023-07-28T08:03:43;7.57;;;4.40;;
54125;SDS011;40360;52.992;6.796;2023-07-28T08:06:09;4.90;;;4.00;;
54125;SDS011;40360;52.992;6.796;2023-07-28T08:08:36;4.90;;;3.83;;
54125;SDS011;40360;52.992;6.796;2023-07-28T08:11:02;8.82;;;4.03;;
54125;SDS011;40360;52.992;6.796;2023-07-28T08:13:28;5.13;;;3.28;;
54125;SDS011;40360;52.992;6.796;2023-07-28T08:15:53;5.95;;;3.17;;
54125;SDS011;40360;52.992;6.796;2023-07-28T08:18:19;6.57;;;3.88;;
54125;SDS011;40360;52.992;6.796;2023-07-28T08:20:45;9.93;;;3.60;;
54125;SDS011;40360;52.992;6.796;2023-07-28T08:23:10;7.63;;;3.78;;
54125;SDS011;40360;52.992;6.796;2023-07-28T08:25:36;5.43;;;3.92;;
54125;SDS011;40360;52.992;6.796;2023-07-28T08:28:02;6.38;;;3.92;;
54125;SDS011;40360;52.992;6.796;2023-07-28T08:30:28;6.13;;;3.92;;
54125;SDS011;40360;52.992;6.796;2023-07-28T08:32:53;7.47;;;3.75;;
54125;SDS011;40360;52.992;6.796;2023-07-28T08:35:19;4.80;;;3.53;;
54125;SDS011;40360;52.992;6.796;2023-07-28T08:37:44;6.60;;;4.07;;
54125;SDS011;40360;52.992;6.796;2023-07-28T08:40:10;7.22;;;3.88;;
54125;SDS011;40360;52.992;6.796;2023-07-28T08:42:38;6.78;;;3.58;;
54125;SDS011;40360;52.992;6.796;2023-07-28T08:45:05;5.25;;;3.28;;
54125;SDS011;40360;52.992;6.796;2023-07-28T08:47:32;7.50;;;4.75;;
54125;SDS011;40360;52.992;6.796;2023-07-28T08:49:57;10.93;;;4.65;;
54125;SDS011;40360;52.992;6.796;2023-07-28T08:52:23;4.90;;;3.70;;
54125;SDS011;40360;52.992;6.796;2023-07-28T08:54:49;8.68;;;4.07;;
54125;SDS011;40360;52.992;6.796;2023-07-28T08:57:15;5.97;;;3.88;;
54125;SDS011;40360;52.992;6.796;2023-07-28T08:59:40;7.78;;;3.92;;
54125;SDS011;40360;52.992;6.796;2023-07-28T09:02:12;4.72;;;3.08;;
54125;SDS011;40360;52.992;6.796;2023-07-28T09:04:41;6.72;;;4.13;;
54125;SDS011;40360;52.992;6.796;2023-07-28T09:07:07;5.50;;;3.42;;
54125;SDS011;40360;52.992;6.796;2023-07-28T09:09:33;4.65;;;2.50;;
54125;SDS011;40360;52.992;6.796;2023-07-28T09:11:59;4.80;;;3.25;;
54125;SDS011;40360;52.992;6.796;2023-07-28T09:14:26;4.90;;;3.53;;
54125;SDS011;40360;52.992;6.796;2023-07-28T09:16:52;5.18;;;2.95;;
54125;SDS011;40360;52.992;6.796;2023-07-28T09:19:19;7.47;;;3.90;;
54125;SDS011;40360;52.992;6.796;2023-07-28T09:21:45;6.80;;;2.83;;
54125;SDS011;40360;52.992;6.796;2023-07-28T09:24:28;6.05;;;3.42;;
54125;SDS011;40360;52.992;6.796;2023-07-28T09:26:59;4.40;;;2.92;;
54125;SDS011;40360;52.992;6.796;2023-07-28T09:29:26;5.57;;;2.80;;
54125;SDS011;40360;52.992;6.796;2023-07-28T09:32:02;5.22;;;3.35;;
54125;SDS011;40360;52.992;6.796;2023-07-28T09:34:29;7.00;;;3.75;;
54125;SDS011;40360;52.992;6.796;2023-07-28T09:36:56;6.03;;;3.15;;
54125;SDS011;40360;52.992;6.796;2023-07-28T09:39:23;5.20;;;3.78;;
54125;SDS011;40360;52.992;6.796;2023-07-28T09:41:48;8.32;;;3.55;;
54125;SDS011;40360;52.992;6.796;2023-07-28T09:44:15;4.78;;;3.55;;
54125;SDS011;40360;52.992;6.796;2023-07-28T09:46:48;5.88;;;3.40;;
54125;SDS011;40360;52.992;6.796;2023-07-28T09:49:22;6.40;;;3.90;;
54125;SDS011;40360;52.992;6.796;2023-07-28T09:51:53;6.18;;;3.80;;
54125;SDS011;40360;52.992;6.796;2023-07-28T09:54:24;9.52;;;3.83;;
54125;SDS011;40360;52.992;6.796;2023-07-28T09:56:57;3.80;;;3.28;;
54125;SDS011;40360;52.992;6.796;2023-07-28T09:59:35;6.10;;;3.97;;
54125;SDS011;40360;52.992;6.796;2023-07-28T10:02:04;6.28;;;4.30;;
54125;SDS011;40360;52.992;6.796;2023-07-28T10:04:30;5.68;;;4.00;;
54125;SDS011;40360;52.992;6.796;2023-07-28T10:06:57;6.53;;;4.20;;
54125;SDS011;40360;52.992;6.796;2023-07-28T10:09:24;6.05;;;3.55;;
54125;SDS011;40360;52.992;6.796;2023-07-28T10:11:50;8.13;;;3.85;;
54125;SDS011;40360;52.992;6.796;2023-07-28T10:14:29;4.05;;;3.45;;
54125;SDS011;40360;52.992;6.796;2023-07-28T10:16:59;4.15;;;3.53;;
54125;SDS011;40360;52.992;6.796;2023-07-28T10:19:27;3.50;;;3.20;;
54125;SDS011;40360;52.992;6.796;2023-07-28T10:22:02;6.28;;;3.60;;
54125;SDS011;40360;52.992;6.796;2023-07-28T10:30:04;7.05;;;3.78;;
54125;SDS011;40360;52.992;6.796;2023-07-28T10:32:38;4.20;;;3.50;;
54125;SDS011;40360;52.992;6.796;2023-07-28T10:37:45;5.00;;;3.33;;
54125;SDS011;40360;52.992;6.796;2023-07-28T10:42:51;4.13;;;3.33;;
54125;SDS011;40360;52.992;6.796;2023-07-28T10:45:18;4.97;;;2.80;;
54125;SDS011;40360;52.992;6.796;2023-07-28T10:47:44;5.20;;;3.38;;
54125;SDS011;40360;52.992;6.796;2023-07-28T10:50:11;5.05;;;2.58;;
54125;SDS011;40360;52.992;6.796;2023-07-28T10:52:43;6.32;;;2.92;;
54125;SDS011;40360;52.992;6.796;2023-07-28T10:57:42;4.25;;;2.75;;
54125;SDS011;40360;52.992;6.796;2023-07-28T11:00:10;4.05;;;3.28;;
54125;SDS011;40360;52.992;6.796;2023-07-28T11:02:43;7.22;;;3.30;;
54125;SDS011;40360;52.992;6.796;2023-07-28T11:05:10;6.60;;;3.25;;
54125;SDS011;40360;52.992;6.796;2023-07-28T11:07:38;3.67;;;3.20;;
54125;SDS011;40360;52.992;6.796;2023-07-28T11:10:07;5.03;;;3.30;;
54125;SDS011;40360;52.992;6.796;2023-07-28T11:12:33;3.28;;;2.75;;
54125;SDS011;40360;52.992;6.796;2023-07-28T11:14:59;4.95;;;3.08;;
54125;SDS011;40360;52.992;6.796;2023-07-28T11:17:24;4.72;;;2.92;;
54125;SDS011;40360;52.992;6.796;2023-07-28T11:19:52;3.25;;;1.98;;
54125;SDS011;40360;52.992;6.796;2023-07-28T11:22:18;5.40;;;2.55;;
54125;SDS011;40360;52.992;6.796;2023-07-28T11:24:44;3.03;;;2.67;;
54125;SDS011;40360;52.992;6.796;2023-07-28T11:27:10;4.25;;;2.42;;
54125;SDS011;40360;52.992;6.796;2023-07-28T11:29:36;4.78;;;2.40;;
54125;SDS011;40360;52.992;6.796;2023-07-28T11:32:02;3.47;;;2.60;;
54125;SDS011;40360;52.992;6.796;2023-07-28T11:34:28;4.80;;;2.60;;
54125;SDS011;40360;52.992;6.796;2023-07-28T11:37:00;4.93;;;2.97;;
54125;SDS011;40360;52.992;6.796;2023-07-28T11:39:27;3.67;;;2.95;;
54125;SDS011;40360;52.992;6.796;2023-07-28T11:41:53;3.58;;;2.55;;
54125;SDS011;40360;52.992;6.796;2023-07-28T11:44:20;5.65;;;3.08;;
54125;SDS011;40360;52.992;6.796;2023-07-28T11:46:46;6.20;;;2.95;;
54125;SDS011;40360;52.992;6.796;2023-07-28T11:49:18;4.53;;;3.50;;
54125;SDS011;40360;52.992;6.796;2023-07-28T11:51:47;4.30;;;2.63;;
54125;SDS011;40360;52.992;6.796;2023-07-28T11:54:15;5.88;;;3.20;;
54125;SDS011;40360;52.992;6.796;2023-07-28T11:56:42;5.45;;;3.13;;
54125;SDS011;40360;52.992;6.796;2023-07-28T11:59:09;6.18;;;3.13;;
54125;SDS011;40360;52.992;6.796;2023-07-28T12:04:24;5.15;;;3.33;;
54125;SDS011;40360;52.992;6.796;2023-07-28T12:07:00;4.68;;;3.42;;
54125;SDS011;40360;52.992;6.796;2023-07-28T12:12:15;5.55;;;3.40;;
54125;SDS011;40360;52.992;6.796;2023-07-28T12:14:41;6.65;;;4.43;;
54125;SDS011;40360;52.992;6.796;2023-07-28T12:17:14;4.80;;;4.15;;
54125;SDS011;40360;52.992;6.796;2023-07-28T12:20:03;5.32;;;3.92;;
54125;SDS011;40360;52.992;6.796;2023-07-28T12:22:36;5.22;;;3.97;;
54125;SDS011;40360;52.992;6.796;2023-07-28T12:25:02;4.82;;;3.80;;
54125;SDS011;40360;52.992;6.796;2023-07-28T12:27:29;5.35;;;3.83;;
54125;SDS011;40360;52.992;6.796;2023-07-28T12:29:55;6.28;;;4.45;;
54125;SDS011;40360;52.992;6.796;2023-07-28T12:32:21;6.40;;;5.35;;
54125;SDS011;40360;52.992;6.796;2023-07-28T12:34:48;5.55;;;4.35;;
54125;SDS011;40360;52.992;6.796;2023-07-28T12:37:13;6.65;;;4.25;;
54125;SDS011;40360;52.992;6.796;2023-07-28T12:39:39;5.45;;;4.50;;
54125;SDS011;40360;52.992;6.796;2023-07-28T12:42:06;6.30;;;4.18;;
54125;SDS011;40360;52.992;6.796;2023-07-28T12:44:32;7.30;;;5.20;;
54125;SDS011;40360;52.992;6.796;2023-07-28T12:46:58;6.47;;;4.90;;
54125;SDS011;40360;52.992;6.796;2023-07-28T12:49:24;9.38;;;5.80;;
54125;SDS011;40360;52.992;6.796;2023-07-28T12:51:49;10.25;;;5.90;;
54125;SDS011;40360;52.992;6.796;2023-07-28T12:54:15;8.23;;;6.65;;
54125;SDS011;40360;52.992;6.796;2023-07-28T12:56:40;8.95;;;6.45;;
54125;SDS011;40360;52.992;6.796;2023-07-28T12:59:07;10.65;;;6.85;;
54125;SDS011;40360;52.992;6.796;2023-07-28T13:01:32;9.75;;;6.93;;
54125;SDS011;40360;52.992;6.796;2023-07-28T13:03:59;10.05;;;7.65;;
54125;SDS011;40360;52.992;6.796;2023-07-28T13:06:24;12.88;;;7.80;;
54125;SDS011;40360;52.992;6.796;2023-07-28T13:08:50;9.88;;;6.38;;
54125;SDS011;40360;52.992;6.796;2023-07-28T13:11:15;14.38;;;7.45;;
54125;SDS011;40360;52.992;6.796;2023-07-28T13:13:41;11.57;;;7.78;;
54125;SDS011;40360;52.992;6.796;2023-07-28T13:16:07;10.57;;;8.27;;
54125;SDS011;40360;52.992;6.796;2023-07-28T13:18:32;9.00;;;8.07;;
54125;SDS011;40360;52.992;6.796;2023-07-28T13:20:58;8.52;;;7.70;;
54125;SDS011;40360;52.992;6.796;2023-07-28T13:23:24;7.82;;;6.30;;
54125;SDS011;40360;52.992;6.796;2023-07-28T13:25:50;7.82;;;5.70;;
54125;SDS011;40360;52.992;6.796;2023-07-28T13:28:17;4.53;;;4.13;;
54125;SDS011;40360;52.992;6.796;2023-07-28T13:30:43;7.20;;;5.40;;
54125;SDS011;40360;52.992;6.796;2023-07-28T13:33:08;7.38;;;5.60;;
54125;SDS011;40360;52.992;6.796;2023-07-28T13:35:34;6.65;;;5.70;;
54125;SDS011;40360;52.992;6.796;2023-07-28T13:38:00;8.82;;;5.03;;
54125;SDS011;40360;52.992;6.796;2023-07-28T13:40:25;5.93;;;3.35;;
54125;SDS011;40360;52.992;6.796;2023-07-28T13:42:51;6.00;;;3.28;;
54125;SDS011;40360;52.992;6.796;2023-07-28T13:45:17;4.53;;;3.20;;
54125;SDS011;40360;52.992;6.796;2023-07-28T13:47:42;4.75;;;2.38;;
54125;SDS011;40360;52.992;6.796;2023-07-28T13:50:08;5.22;;;2.60;;
54125;SDS011;40360;52.992;6.796;2023-07-28T13:52:34;2.75;;;2.28;;
54125;SDS011;40360;52.992;6.796;2023-07-28T13:54:59;2.95;;;2.20;;
54125;SDS011;40360;52.992;6.796;2023-07-28T13:57:25;5.45;;;2.30;;
54125;SDS011;40360;52.992;6.796;2023-07-28T13:59:51;4.10;;;2.58;;
54125;SDS011;40360;52.992;6.796;2023-07-28T14:02:17;8.27;;;2.92;;
54125;SDS011;40360;52.992;6.796;2023-07-28T14:04:43;3.60;;;2.70;;
54125;SDS011;40360;52.992;6.796;2023-07-28T14:07:09;3.88;;;2.40;;
54125;SDS011;40360;52.992;6.796;2023-07-28T14:09:35;7.38;;;2.85;;
54125;SDS011;40360;52.992;6.796;2023-07-28T14:12:02;4.57;;;2.85;;
54125;SDS011;40360;52.992;6.796;2023-07-28T14:14:28;5.18;;;2.85;;
54125;SDS011;40360;52.992;6.796;2023-07-28T14:16:54;5.22;;;3.72;;
54125;SDS011;40360;52.992;6.796;2023-07-28T14:19:19;4.68;;;3.35;;
54125;SDS011;40360;52.992;6.796;2023-07-28T14:21:45;6.40;;;3.28;;
54125;SDS011;40360;52.992;6.796;2023-07-28T14:24:11;4.68;;;3.33;;
54125;SDS011;40360;52.992;6.796;2023-07-28T14:26:36;5.15;;;3.50;;
54125;SDS011;40360;52.992;6.796;2023-07-28T14:29:02;7.20;;;3.92;;
54125;SDS011;40360;52.992;6.796;2023-07-28T14:31:28;5.90;;;3.60;;
54125;SDS011;40360;52.992;6.796;2023-07-28T14:33:53;5.32;;;3.67;;
54125;SDS011;40360;52.992;6.796;2023-07-28T14:36:19;6.45;;;3.97;;
54125;SDS011;40360;52.992;6.796;2023-07-28T14:38:45;5.57;;;3.58;;
54125;SDS011;40360;52.992;6.796;2023-07-28T14:41:11;3.92;;;3.35;;
54125;SDS011;40360;52.992;6.796;2023-07-28T14:43:37;6.82;;;3.63;;
54125;SDS011;40360;52.992;6.796;2023-07-28T14:46:02;5.75;;;3.55;;
54125;SDS011;40360;52.992;6.796;2023-07-28T14:48:28;6.38;;;3.55;;
54125;SDS011;40360;52.992;6.796;2023-07-28T14:50:54;6.90;;;4.15;;
54125;SDS011;40360;52.992;6.796;2023-07-28T14:53:33;6.20;;;4.45;;
54125;SDS011;40360;52.992;6.796;2023-07-28T14:56:00;4.30;;;3.15;;
54125;SDS011;40360;52.992;6.796;2023-07-28T14:58:27;4.78;;;3.58;;
54125;SDS011;40360;52.992;6.796;2023-07-28T15:00:53;4.75;;;4.25;;
54125;SDS011;40360;52.992;6.796;2023-07-28T15:03:18;4.57;;;4.10;;
54125;SDS011;40360;52.992;6.796;2023-07-28T15:05:44;5.07;;;4.22;;
54125;SDS011;40360;52.992;6.796;2023-07-28T15:08:10;6.55;;;4.60;;
54125;SDS011;40360;52.992;6.796;2023-07-28T15:10:35;6.00;;;4.35;;